createdAt,value
2022-12-29T00:00:04.224Z,21.62
2022-12-29T00:01:04.344Z,21.63
2022-12-29T00:02:04.206Z,21.60
2022-12-29T00:03:04.365Z,21.53
2022-12-29T00:04:04.277Z,21.50
2022-12-29T00:05:04.157Z,21.43
2022-12-29T00:06:04.180Z,21.37
2022-12-29T00:07:04.165Z,21.32
2022-12-29T00:08:04.133Z,21.33
2022-12-29T00:09:04.128Z,21.33
2022-12-29T00:10:04.092Z,21.35
2022-12-29T00:11:04.091Z,21.37
2022-12-29T00:12:04.103Z,21.33
2022-12-29T00:13:04.116Z,21.30
2022-12-29T00:14:04.064Z,21.26
2022-12-29T00:15:04.099Z,21.25
2022-12-29T00:16:04.158Z,21.25
2022-12-29T00:17:04.084Z,21.25
2022-12-29T00:18:04.056Z,21.25
2022-12-29T00:19:04.113Z,21.26
2022-12-29T00:20:04.086Z,21.29
2022-12-29T00:21:04.065Z,21.33
2022-12-29T00:22:04.035Z,21.35
2022-12-29T00:23:03.971Z,21.37
2022-12-29T00:24:03.996Z,21.38
2022-12-29T00:25:03.991Z,21.40
2022-12-29T00:26:03.955Z,21.40
2022-12-29T00:27:04.008Z,21.43
2022-12-29T00:28:07.509Z,21.44
2022-12-29T00:29:03.910Z,21.47
2022-12-29T00:30:03.941Z,21.48
2022-12-29T00:31:04.027Z,21.51
2022-12-29T00:32:03.978Z,21.51
2022-12-29T00:33:04.002Z,21.53
2022-12-29T00:34:03.926Z,21.54
2022-12-29T00:35:03.848Z,21.54
2022-12-29T00:36:03.910Z,21.54
2022-12-29T00:37:03.863Z,21.56
2022-12-29T00:38:03.919Z,21.56
2022-12-29T00:39:03.853Z,21.54
2022-12-29T00:40:03.957Z,21.53
2022-12-29T00:41:03.759Z,21.50
2022-12-29T00:42:03.854Z,21.44
2022-12-29T00:43:03.846Z,21.43
2022-12-29T00:44:03.795Z,21.41
2022-12-29T00:45:04.401Z,21.41
2022-12-29T00:46:03.757Z,21.41
2022-12-29T00:47:03.815Z,21.38
2022-12-29T00:48:03.795Z,21.37
2022-12-29T00:49:03.705Z,21.37
2022-12-29T00:50:03.713Z,21.37
2022-12-29T00:51:03.803Z,21.35
2022-12-29T00:52:03.694Z,21.37
2022-12-29T00:53:03.708Z,21.35
2022-12-29T00:54:03.696Z,21.37
2022-12-29T00:55:03.640Z,21.38
2022-12-29T00:56:03.719Z,21.41
2022-12-29T00:57:03.717Z,21.44
2022-12-29T00:58:03.623Z,21.45
2022-12-29T00:59:03.645Z,21.41
2022-12-29T01:00:03.616Z,21.38
2022-12-29T01:01:03.715Z,21.38
2022-12-29T01:02:03.813Z,21.40
2022-12-29T01:03:03.678Z,21.33
2022-12-29T01:04:04.520Z,21.29
2022-12-29T01:05:03.489Z,21.25
2022-12-29T01:06:03.583Z,21.19
2022-12-29T01:07:03.518Z,21.13
2022-12-29T01:08:03.584Z,21.11
2022-12-29T01:09:03.501Z,21.10
2022-12-29T01:10:03.461Z,21.10
2022-12-29T01:11:03.504Z,21.07
2022-12-29T01:12:03.454Z,21.05
2022-12-29T01:13:03.481Z,21.07
2022-12-29T01:14:03.463Z,21.11
2022-12-29T01:15:03.393Z,21.14
2022-12-29T01:16:03.443Z,21.15
2022-12-29T01:17:03.516Z,21.10
2022-12-29T01:18:03.389Z,21.08
2022-12-29T01:19:03.465Z,21.08
2022-12-29T01:20:03.417Z,21.05
2022-12-29T01:21:03.377Z,21.04
2022-12-29T01:22:03.316Z,21.04
2022-12-29T01:23:03.322Z,21.04
2022-12-29T01:24:03.471Z,21.05
2022-12-29T01:25:03.402Z,21.05
2022-12-29T01:26:03.326Z,21.07
2022-12-29T01:27:04.007Z,21.08
2022-12-29T01:28:03.283Z,21.10
2022-12-29T01:29:03.283Z,21.10
2022-12-29T01:30:03.416Z,21.13
2022-12-29T01:31:03.274Z,21.15
2022-12-29T01:32:03.276Z,21.17
2022-12-29T01:33:03.213Z,21.20
2022-12-29T01:34:03.282Z,21.20
2022-12-29T01:35:03.237Z,21.20
2022-12-29T01:36:03.246Z,21.23
2022-12-29T01:37:03.307Z,21.22
2022-12-29T01:38:03.241Z,21.26
2022-12-29T01:39:03.139Z,21.28
2022-12-29T01:40:03.148Z,21.30
2022-12-29T01:41:03.162Z,21.33
2022-12-29T01:42:03.172Z,21.35
2022-12-29T01:43:03.167Z,21.38
2022-12-29T01:44:03.184Z,21.41
2022-12-29T01:45:03.091Z,21.40
2022-12-29T01:46:03.218Z,21.38
2022-12-29T01:47:03.094Z,21.40
2022-12-29T01:48:03.112Z,21.41
2022-12-29T01:49:03.057Z,21.41
2022-12-29T01:50:03.110Z,21.43
2022-12-29T01:51:03.018Z,21.43
2022-12-29T01:52:03.024Z,21.43
2022-12-29T01:53:03.108Z,21.44
2022-12-29T01:54:03.043Z,21.45
2022-12-29T01:55:03.075Z,21.47
2022-12-29T01:56:03.151Z,21.50
2022-12-29T01:57:02.963Z,21.50
2022-12-29T01:58:02.987Z,21.50
2022-12-29T01:59:03.036Z,21.50
2022-12-29T02:00:02.988Z,21.50
2022-12-29T02:01:03.046Z,21.50
2022-12-29T02:02:03.007Z,21.53
2022-12-29T02:03:02.937Z,21.53
2022-12-29T02:04:02.926Z,21.54
2022-12-29T02:05:04.865Z,21.56
2022-12-29T02:06:02.859Z,21.56
2022-12-29T02:07:02.889Z,21.54
2022-12-29T02:08:02.892Z,21.58
2022-12-29T02:09:02.854Z,21.59
2022-12-29T02:10:02.852Z,21.59
2022-12-29T02:11:02.850Z,21.59
2022-12-29T02:12:02.851Z,21.60
2022-12-29T02:13:02.814Z,21.60
2022-12-29T02:14:03.878Z,21.59
2022-12-29T02:15:02.816Z,21.60
2022-12-29T02:16:02.915Z,21.60
2022-12-29T02:17:02.735Z,21.60
2022-12-29T02:18:02.737Z,21.62
2022-12-29T02:19:02.739Z,21.63
2022-12-29T02:20:02.770Z,21.65
2022-12-29T02:21:02.725Z,21.63
2022-12-29T02:22:02.718Z,21.63
2022-12-29T02:23:02.723Z,21.60
2022-12-29T02:24:02.684Z,21.62
2022-12-29T02:25:02.687Z,21.60
2022-12-29T02:26:02.704Z,21.60
2022-12-29T02:27:02.645Z,21.60
2022-12-29T02:28:02.659Z,21.60
2022-12-29T02:29:02.607Z,21.60
2022-12-29T02:30:02.617Z,21.60
2022-12-29T02:31:02.832Z,21.60
2022-12-29T02:32:02.648Z,21.58
2022-12-29T02:33:02.641Z,21.59
2022-12-29T02:34:02.590Z,21.59
2022-12-29T02:35:02.546Z,21.58
2022-12-29T02:36:02.572Z,21.58
2022-12-29T02:37:02.576Z,21.58
2022-12-29T02:38:02.567Z,21.56
2022-12-29T02:39:02.547Z,21.56
2022-12-29T02:40:02.491Z,21.54
2022-12-29T02:41:02.491Z,21.54
2022-12-29T02:42:02.633Z,21.56
2022-12-29T02:43:02.991Z,21.54
2022-12-29T02:44:02.464Z,21.56
2022-12-29T02:45:02.521Z,21.54
2022-12-29T02:46:02.519Z,21.56
2022-12-29T02:47:02.425Z,21.60
2022-12-29T02:48:02.415Z,21.62
2022-12-29T02:49:02.825Z,21.63
2022-12-29T02:50:02.449Z,21.63
2022-12-29T02:51:02.438Z,21.66
2022-12-29T02:52:02.368Z,21.66
2022-12-29T02:53:02.452Z,21.68
2022-12-29T02:54:02.346Z,21.70
2022-12-29T02:55:02.355Z,21.72
2022-12-29T02:56:02.324Z,21.72
2022-12-29T02:57:02.374Z,21.74
2022-12-29T02:58:02.299Z,21.74
2022-12-29T02:59:02.303Z,21.74
2022-12-29T03:00:02.334Z,21.72
2022-12-29T03:01:02.436Z,21.68
2022-12-29T03:02:02.542Z,21.66
2022-12-29T03:03:02.487Z,21.65
2022-12-29T03:04:02.224Z,21.65
2022-12-29T03:05:02.269Z,21.63
2022-12-29T03:06:02.286Z,21.60
2022-12-29T03:07:02.373Z,21.56
2022-12-29T03:08:02.240Z,21.56
2022-12-29T03:09:02.755Z,21.53
2022-12-29T03:10:02.171Z,21.51
2022-12-29T03:11:02.153Z,21.48
2022-12-29T03:12:02.168Z,21.47
2022-12-29T03:13:02.438Z,21.44
2022-12-29T03:14:02.062Z,21.41
2022-12-29T03:17:45.824Z,21.43
2022-12-29T03:18:32.454Z,21.43
2022-12-29T03:19:32.428Z,21.43
2022-12-29T03:20:32.425Z,21.44
2022-12-29T03:21:32.431Z,21.45
2022-12-29T03:22:32.441Z,21.48
2022-12-29T03:23:32.465Z,21.48
2022-12-29T03:24:32.436Z,21.48
2022-12-29T03:25:32.359Z,21.45
2022-12-29T03:26:32.361Z,21.45
2022-12-29T03:27:53.361Z,21.44
2022-12-29T03:28:32.389Z,21.44
2022-12-29T03:29:32.453Z,21.44
2022-12-29T03:30:32.313Z,21.44
2022-12-29T03:31:32.298Z,21.45
2022-12-29T03:32:32.887Z,21.47
2022-12-29T03:33:32.322Z,21.47
2022-12-29T03:34:32.372Z,21.47
2022-12-29T03:35:32.404Z,21.47
2022-12-29T03:36:32.286Z,21.47
2022-12-29T03:37:32.308Z,21.48
2022-12-29T03:38:32.239Z,21.48
2022-12-29T03:39:32.432Z,21.43
2022-12-29T03:40:32.928Z,21.43
2022-12-29T03:41:35.707Z,21.44
2022-12-29T03:42:32.217Z,21.44
2022-12-29T03:43:32.256Z,21.45
2022-12-29T03:44:32.187Z,21.45
2022-12-29T03:45:32.556Z,21.44
2022-12-29T03:46:32.426Z,21.43
2022-12-29T03:47:32.165Z,21.44
2022-12-29T03:48:32.203Z,21.43
2022-12-29T03:49:32.165Z,21.44
2022-12-29T03:50:32.182Z,21.44
2022-12-29T03:51:53.313Z,21.45
2022-12-29T03:52:38.794Z,21.43
2022-12-29T03:53:32.016Z,21.41
2022-12-29T03:54:32.118Z,21.41
2022-12-29T03:55:32.116Z,21.41
2022-12-29T03:56:33.971Z,21.40
2022-12-29T03:57:32.124Z,21.38
2022-12-29T03:58:32.142Z,21.37
2022-12-29T03:59:32.042Z,21.37
2022-12-29T04:00:32.064Z,21.33
2022-12-29T04:01:32.155Z,21.32
2022-12-29T04:02:32.649Z,21.30
2022-12-29T04:03:32.108Z,21.29
2022-12-29T04:04:32.067Z,21.30
2022-12-29T04:05:31.975Z,21.32
2022-12-29T04:06:31.972Z,21.32
2022-12-29T04:07:31.924Z,21.33
2022-12-29T04:08:32.509Z,21.33
2022-12-29T04:09:32.000Z,21.35
2022-12-29T04:10:32.008Z,21.35
2022-12-29T04:11:33.367Z,21.33
2022-12-29T04:12:31.931Z,21.33
2022-12-29T04:13:31.924Z,21.33
2022-12-29T04:14:32.959Z,21.35
2022-12-29T04:15:31.994Z,21.32
2022-12-29T04:16:31.954Z,21.33
2022-12-29T04:17:31.847Z,21.33
2022-12-29T04:18:31.831Z,21.33
2022-12-29T04:19:31.875Z,21.32
2022-12-29T04:20:31.982Z,21.30
2022-12-29T04:21:32.394Z,21.29
2022-12-29T04:22:32.401Z,21.28
2022-12-29T04:23:31.784Z,21.29
2022-12-29T04:24:52.705Z,21.28
2022-12-29T04:25:31.803Z,21.28
2022-12-29T04:26:34.894Z,21.28
2022-12-29T04:27:31.818Z,21.28
2022-12-29T04:28:31.721Z,21.28
2022-12-29T04:29:31.724Z,21.28
2022-12-29T04:30:31.744Z,21.29
2022-12-29T04:31:31.789Z,21.29
2022-12-29T04:32:32.463Z,21.29
2022-12-29T04:33:38.412Z,21.28
2022-12-29T04:34:31.649Z,21.28
2022-12-29T04:35:31.656Z,21.29
2022-12-29T04:36:34.853Z,21.25
2022-12-29T04:37:31.632Z,21.25
2022-12-29T04:38:32.089Z,21.23
2022-12-29T04:39:31.705Z,21.23
2022-12-29T04:40:31.701Z,21.25
2022-12-29T04:41:31.604Z,21.25
2022-12-29T04:42:31.614Z,21.28
2022-12-29T04:43:31.620Z,21.26
2022-12-29T04:44:31.626Z,21.23
2022-12-29T04:45:31.632Z,21.26
2022-12-29T04:46:31.675Z,21.26
2022-12-29T04:47:31.545Z,21.28
2022-12-29T04:48:31.559Z,21.28
2022-12-29T04:49:31.559Z,21.26
2022-12-29T04:50:31.681Z,21.28
2022-12-29T04:51:32.082Z,21.26
2022-12-29T04:52:31.573Z,21.26
2022-12-29T04:53:31.481Z,21.26
2022-12-29T04:54:31.460Z,21.25
2022-12-29T04:55:31.493Z,21.28
2022-12-29T04:56:31.511Z,21.28
2022-12-29T04:57:32.080Z,21.28
2022-12-29T04:58:31.513Z,21.25
2022-12-29T04:59:31.377Z,21.26
2022-12-29T05:00:31.460Z,21.25
2022-12-29T05:01:31.504Z,21.23
2022-12-29T05:02:31.629Z,21.26
2022-12-29T05:03:32.175Z,21.26
2022-12-29T05:04:31.463Z,21.26
2022-12-29T05:05:31.460Z,21.25
2022-12-29T05:06:31.368Z,21.23
2022-12-29T05:07:31.378Z,21.23
2022-12-29T05:08:31.360Z,21.22
2022-12-29T05:09:31.259Z,21.20
2022-12-29T05:10:31.393Z,21.17
2022-12-29T05:11:31.249Z,21.19
2022-12-29T05:12:31.245Z,21.17
2022-12-29T05:13:31.296Z,21.15
2022-12-29T05:14:31.498Z,21.17
2022-12-29T05:15:32.076Z,21.15
2022-12-29T05:16:31.414Z,21.14
2022-12-29T05:17:31.184Z,21.17
2022-12-29T05:18:31.192Z,21.15
2022-12-29T05:19:31.198Z,21.17
2022-12-29T05:20:31.207Z,21.19
2022-12-29T05:21:31.217Z,21.19
2022-12-29T05:22:31.114Z,21.19
2022-12-29T05:23:31.122Z,21.20
2022-12-29T05:24:31.335Z,21.17
2022-12-29T05:25:31.130Z,21.15
2022-12-29T05:26:31.092Z,21.15
2022-12-29T05:27:31.149Z,21.13
2022-12-29T05:28:31.082Z,21.13
2022-12-29T05:29:31.061Z,21.13
2022-12-29T05:30:31.106Z,21.13
2022-12-29T05:31:31.133Z,21.13
2022-12-29T05:32:31.029Z,21.13
2022-12-29T05:33:31.947Z,21.13
2022-12-29T05:34:31.020Z,21.14
2022-12-29T05:35:31.095Z,21.15
2022-12-29T05:36:37.247Z,21.17
2022-12-29T05:37:31.037Z,21.19
2022-12-29T05:38:31.585Z,21.17
2022-12-29T05:39:31.047Z,21.17
2022-12-29T05:40:31.037Z,21.17
2022-12-29T05:41:31.042Z,21.20
2022-12-29T05:42:30.973Z,21.20
2022-12-29T05:43:30.884Z,21.15
2022-12-29T05:44:30.887Z,21.14
2022-12-29T05:45:30.965Z,21.13
2022-12-29T05:46:30.923Z,21.11
2022-12-29T05:47:30.966Z,21.13
2022-12-29T05:48:37.520Z,21.13
2022-12-29T05:49:30.903Z,21.11
2022-12-29T05:50:30.824Z,21.11
2022-12-29T05:51:31.421Z,21.11
2022-12-29T05:52:30.802Z,21.11
2022-12-29T05:53:30.841Z,21.13
2022-12-29T05:54:30.751Z,21.14
2022-12-29T05:55:30.825Z,21.14
2022-12-29T05:56:30.767Z,21.17
2022-12-29T05:57:30.856Z,21.19
2022-12-29T05:58:30.736Z,21.20
2022-12-29T05:59:30.755Z,21.23
2022-12-29T06:00:30.741Z,21.25
2022-12-29T06:01:30.953Z,21.23
2022-12-29T06:02:30.887Z,21.23
2022-12-29T06:03:30.993Z,21.25
2022-12-29T06:04:30.678Z,21.23
2022-12-29T06:05:30.686Z,21.25
2022-12-29T06:06:30.628Z,21.23
2022-12-29T06:07:30.636Z,21.25
2022-12-29T06:08:30.706Z,21.26
2022-12-29T06:09:30.633Z,21.25
2022-12-29T06:10:30.645Z,21.26
2022-12-29T06:11:30.629Z,21.25
2022-12-29T06:12:30.939Z,21.23
2022-12-29T06:13:30.571Z,21.25
2022-12-29T06:14:30.566Z,21.25
2022-12-29T06:15:30.588Z,21.23
2022-12-29T06:16:30.700Z,21.23
2022-12-29T06:17:30.597Z,21.25
2022-12-29T06:18:30.777Z,21.26
2022-12-29T06:19:30.604Z,21.28
2022-12-29T06:20:30.585Z,21.28
2022-12-29T06:21:30.615Z,21.28
2022-12-29T06:22:30.571Z,21.29
2022-12-29T06:23:30.488Z,21.29
2022-12-29T06:24:30.483Z,21.29
2022-12-29T06:25:31.154Z,21.30
2022-12-29T06:26:30.445Z,21.29
2022-12-29T06:27:30.501Z,21.28
2022-12-29T06:28:30.427Z,21.28
2022-12-29T06:29:30.477Z,21.29
2022-12-29T06:30:30.423Z,21.29
2022-12-29T06:31:30.925Z,21.28
2022-12-29T06:32:30.442Z,21.29
2022-12-29T06:33:30.365Z,21.28
2022-12-29T06:34:30.374Z,21.25
2022-12-29T06:35:30.358Z,21.23
2022-12-29T06:36:30.382Z,21.25
2022-12-29T06:37:30.320Z,21.25
2022-12-29T06:38:30.316Z,21.23
2022-12-29T06:39:30.334Z,21.26
2022-12-29T06:40:30.435Z,21.23
2022-12-29T06:41:32.464Z,21.23
2022-12-29T06:42:30.309Z,21.23
2022-12-29T06:43:30.412Z,21.22
2022-12-29T06:44:30.357Z,21.25
2022-12-29T06:45:30.464Z,21.26
2022-12-29T06:46:30.334Z,21.28
2022-12-29T06:47:30.235Z,21.29
2022-12-29T06:48:30.283Z,21.28
2022-12-29T06:49:30.183Z,21.28
2022-12-29T06:50:30.195Z,21.26
2022-12-29T06:51:30.789Z,21.28
2022-12-29T06:52:30.921Z,21.28
2022-12-29T06:53:30.226Z,21.29
2022-12-29T06:54:30.223Z,21.28
2022-12-29T06:55:30.257Z,21.26
2022-12-29T06:56:30.126Z,21.26
2022-12-29T06:57:30.076Z,21.26
2022-12-29T06:58:30.141Z,21.28
2022-12-29T06:59:30.262Z,21.29
2022-12-29T07:00:30.124Z,21.29
2022-12-29T07:01:30.322Z,21.30
2022-12-29T07:02:30.183Z,21.29
2022-12-29T07:03:30.121Z,21.29
2022-12-29T07:04:30.017Z,21.30
2022-12-29T07:05:30.643Z,21.30
2022-12-29T07:06:29.988Z,21.32
2022-12-29T07:07:30.139Z,21.33
2022-12-29T07:08:30.085Z,21.32
2022-12-29T07:09:30.049Z,21.33
2022-12-29T07:10:30.692Z,21.35
2022-12-29T07:11:30.102Z,21.35
2022-12-29T07:12:29.970Z,21.38
2022-12-29T07:13:29.981Z,21.40
2022-12-29T07:14:29.925Z,21.43
2022-12-29T07:15:30.097Z,21.43
2022-12-29T07:16:29.997Z,21.43
2022-12-29T07:17:31.165Z,21.43
2022-12-29T07:18:29.901Z,21.44
2022-12-29T07:19:29.849Z,21.43
2022-12-29T07:20:29.949Z,21.44
2022-12-29T07:21:29.861Z,21.45
2022-12-29T07:22:29.884Z,21.45
2022-12-29T07:23:29.963Z,21.48
2022-12-29T07:24:29.786Z,21.50
2022-12-29T07:25:30.043Z,21.48
2022-12-29T07:26:35.916Z,21.50
2022-12-29T07:27:29.854Z,21.51
2022-12-29T07:28:29.849Z,21.51
2022-12-29T07:29:29.772Z,21.51
2022-12-29T07:30:29.777Z,21.51
2022-12-29T07:31:29.832Z,21.53
2022-12-29T07:32:29.793Z,21.53
2022-12-29T07:33:29.783Z,21.53
2022-12-29T07:34:30.507Z,21.51
2022-12-29T07:35:29.810Z,21.50
2022-12-29T07:36:34.391Z,21.48
2022-12-29T07:37:29.701Z,21.48
2022-12-29T07:38:29.726Z,21.48
2022-12-29T07:39:29.736Z,21.50
2022-12-29T07:40:29.859Z,21.50
2022-12-29T07:41:29.764Z,21.53
2022-12-29T07:42:29.646Z,21.53
2022-12-29T07:43:29.665Z,21.54
2022-12-29T07:44:29.777Z,21.54
2022-12-29T07:45:30.478Z,21.54
2022-12-29T07:46:55.518Z,21.54
2022-12-29T07:47:29.687Z,21.54
2022-12-29T07:48:29.566Z,21.56
2022-12-29T07:49:29.613Z,21.56
2022-12-29T07:50:29.622Z,21.56
2022-12-29T07:51:29.612Z,21.56
2022-12-29T07:52:29.528Z,21.58
2022-12-29T07:53:29.507Z,21.56
2022-12-29T07:54:29.519Z,21.56
2022-12-29T07:55:29.515Z,21.56
2022-12-29T07:56:29.538Z,21.56
2022-12-29T07:57:32.307Z,21.54
2022-12-29T07:58:29.456Z,21.56
2022-12-29T07:59:29.433Z,21.56
2022-12-29T08:00:29.470Z,21.58
2022-12-29T08:01:29.783Z,21.56
2022-12-29T08:02:29.481Z,21.56
2022-12-29T08:03:29.422Z,21.56
2022-12-29T08:04:29.296Z,21.56
2022-12-29T08:05:29.327Z,21.53
2022-12-29T08:06:29.229Z,21.53
2022-12-29T08:07:29.298Z,21.50
2022-12-29T08:08:29.282Z,21.48
2022-12-29T08:09:29.250Z,21.48
2022-12-29T08:10:29.265Z,21.47
2022-12-29T08:11:29.329Z,21.47
2022-12-29T08:12:29.267Z,21.44
2022-12-29T08:13:29.278Z,21.43
2022-12-29T08:14:29.288Z,21.44
2022-12-29T08:15:32.561Z,21.43
2022-12-29T08:16:29.303Z,21.44
2022-12-29T08:17:29.201Z,21.44
2022-12-29T08:18:29.206Z,21.45
2022-12-29T08:19:29.211Z,21.47
2022-12-29T08:20:29.302Z,21.47
2022-12-29T08:21:29.138Z,21.48
2022-12-29T08:22:29.133Z,21.48
2022-12-29T08:23:29.149Z,21.50
2022-12-29T08:24:29.209Z,21.50
2022-12-29T08:25:29.042Z,21.51
2022-12-29T08:26:29.161Z,21.53
2022-12-29T08:27:29.150Z,21.53
2022-12-29T08:28:29.068Z,21.53
2022-12-29T08:29:29.079Z,21.53
2022-12-29T08:30:28.983Z,21.54
2022-12-29T08:31:29.225Z,21.56
2022-12-29T08:32:28.976Z,21.54
2022-12-29T08:33:28.997Z,21.54
2022-12-29T08:34:29.005Z,21.53
2022-12-29T08:35:29.018Z,21.53
2022-12-29T08:36:28.920Z,21.54
2022-12-29T08:37:31.238Z,21.53
2022-12-29T08:38:28.948Z,21.53
2022-12-29T08:39:29.005Z,21.54
2022-12-29T08:40:28.933Z,21.54
2022-12-29T08:41:28.906Z,21.54
2022-12-29T08:42:28.846Z,21.54
2022-12-29T08:43:28.942Z,21.56
2022-12-29T08:44:28.868Z,21.53
2022-12-29T08:45:28.975Z,21.53
2022-12-29T08:46:28.929Z,21.50
2022-12-29T08:47:28.848Z,21.51
2022-12-29T08:48:28.786Z,21.51
2022-12-29T08:49:28.792Z,21.51
2022-12-29T08:50:28.864Z,21.51
2022-12-29T08:51:28.877Z,21.51
2022-12-29T08:52:28.822Z,21.53
2022-12-29T08:53:28.782Z,21.53
2022-12-29T08:54:28.725Z,21.54
2022-12-29T08:55:28.735Z,21.54
2022-12-29T08:56:28.734Z,21.56
2022-12-29T08:57:28.752Z,21.56
2022-12-29T08:58:28.752Z,21.58
2022-12-29T08:59:28.658Z,21.59
2022-12-29T09:00:28.652Z,21.59
2022-12-29T09:01:28.748Z,21.60
2022-12-29T09:02:28.921Z,21.63
2022-12-29T09:04:04.441Z,21.63
2022-12-29T09:04:28.830Z,21.65
2022-12-29T09:05:28.671Z,21.63
2022-12-29T09:06:28.594Z,21.65
2022-12-29T09:07:28.673Z,21.65
2022-12-29T09:08:28.668Z,21.65
2022-12-29T09:09:28.939Z,21.65
2022-12-29T09:10:28.675Z,21.66
2022-12-29T09:11:28.539Z,21.63
2022-12-29T09:12:34.442Z,21.63
2022-12-29T09:13:28.540Z,21.62
2022-12-29T09:14:28.557Z,21.62
2022-12-29T09:15:28.964Z,21.56
2022-12-29T09:16:28.680Z,21.51
2022-12-29T09:17:28.541Z,21.50
2022-12-29T09:18:28.536Z,21.50
2022-12-29T09:19:28.576Z,21.50
2022-12-29T09:20:28.555Z,21.51
2022-12-29T09:21:29.088Z,21.53
2022-12-29T09:22:28.564Z,21.54
2022-12-29T09:23:28.477Z,21.56
2022-12-29T09:24:28.476Z,21.56
2022-12-29T09:25:28.485Z,21.58
2022-12-29T09:26:28.487Z,21.60
2022-12-29T09:27:28.506Z,21.59
2022-12-29T09:28:28.562Z,21.54
2022-12-29T09:29:28.418Z,21.53
2022-12-29T09:30:28.365Z,21.50
2022-12-29T09:31:28.498Z,21.48
2022-12-29T09:32:33.459Z,21.48
2022-12-29T09:33:28.445Z,21.47
2022-12-29T09:34:28.391Z,21.44
2022-12-29T09:35:28.359Z,21.44
2022-12-29T09:36:28.360Z,21.44
2022-12-29T09:37:28.377Z,21.45
2022-12-29T09:38:28.365Z,21.47
2022-12-29T09:39:28.321Z,21.45
2022-12-29T09:40:28.328Z,21.44
2022-12-29T09:41:28.289Z,21.43
2022-12-29T09:42:28.243Z,21.45
2022-12-29T09:43:28.308Z,21.47
2022-12-29T09:44:28.254Z,21.48
2022-12-29T09:45:28.258Z,21.48
2022-12-29T09:46:28.293Z,21.50
2022-12-29T09:47:28.166Z,21.48
2022-12-29T09:48:28.240Z,21.48
2022-12-29T09:49:28.261Z,21.47
2022-12-29T09:50:28.185Z,21.47
2022-12-29T09:51:28.199Z,21.48
2022-12-29T09:52:28.202Z,21.48
2022-12-29T09:53:28.138Z,21.51
2022-12-29T09:54:28.127Z,21.51
2022-12-29T09:55:28.120Z,21.54
2022-12-29T09:56:28.147Z,21.56
2022-12-29T09:57:28.197Z,21.56
2022-12-29T09:58:28.205Z,21.53
2022-12-29T09:59:28.064Z,21.54
2022-12-29T10:00:28.139Z,21.54
2022-12-29T10:01:28.173Z,21.51
2022-12-29T10:02:28.193Z,21.51
2022-12-29T10:03:28.592Z,21.50
2022-12-29T10:04:28.010Z,21.50
2022-12-29T10:05:28.003Z,21.48
2022-12-29T10:06:28.666Z,21.47
2022-12-29T10:07:30.102Z,21.47
2022-12-29T10:08:28.082Z,21.47
2022-12-29T10:09:28.078Z,21.47
2022-12-29T10:10:27.982Z,21.47
2022-12-29T10:11:27.981Z,21.47
2022-12-29T10:12:27.956Z,21.48
2022-12-29T10:13:27.898Z,21.50
2022-12-29T10:14:27.963Z,21.50
2022-12-29T10:15:27.993Z,21.51
2022-12-29T10:16:27.879Z,21.50
2022-12-29T10:17:27.931Z,21.51
2022-12-29T10:18:27.892Z,21.54
2022-12-29T10:19:32.904Z,21.53
2022-12-29T10:20:28.008Z,21.53
2022-12-29T10:21:27.805Z,21.53
2022-12-29T10:22:27.809Z,21.51
2022-12-29T10:23:27.817Z,21.53
2022-12-29T10:24:27.845Z,21.54
2022-12-29T10:25:31.178Z,21.56
2022-12-29T10:26:27.789Z,21.59
2022-12-29T10:27:27.841Z,21.62
2022-12-29T10:28:27.756Z,21.65
2022-12-29T10:29:27.813Z,21.63
2022-12-29T10:30:27.771Z,21.66
2022-12-29T10:31:27.869Z,21.65
2022-12-29T10:32:27.734Z,21.65
2022-12-29T10:33:27.700Z,21.63
2022-12-29T10:34:27.703Z,21.60
2022-12-29T10:35:27.663Z,21.60
2022-12-29T10:36:27.653Z,21.60
2022-12-29T10:37:33.608Z,21.62
2022-12-29T10:38:27.704Z,21.62
2022-12-29T10:39:27.689Z,21.62
2022-12-29T10:40:27.701Z,21.63
2022-12-29T10:41:27.636Z,21.68
2022-12-29T10:42:27.596Z,21.69
2022-12-29T10:43:27.611Z,21.70
2022-12-29T10:44:28.058Z,21.74
2022-12-29T10:45:27.629Z,21.75
2022-12-29T10:46:27.568Z,21.75
2022-12-29T10:47:27.565Z,21.77
2022-12-29T10:48:31.860Z,21.80
2022-12-29T10:49:27.539Z,21.78
2022-12-29T10:50:27.496Z,21.78
2022-12-29T10:51:27.486Z,21.81
2022-12-29T10:52:27.467Z,21.80
2022-12-29T10:53:27.468Z,21.80
2022-12-29T10:54:27.538Z,21.80
2022-12-29T10:55:27.543Z,21.80
2022-12-29T10:56:27.439Z,21.81
2022-12-29T10:57:27.471Z,21.84
2022-12-29T10:58:27.444Z,21.84
2022-12-29T10:59:27.472Z,21.83
2022-12-29T11:00:27.421Z,21.83
2022-12-29T11:01:27.568Z,21.84
2022-12-29T11:02:27.555Z,21.84
2022-12-29T11:03:27.492Z,21.84
2022-12-29T11:04:27.342Z,21.85
2022-12-29T11:05:27.339Z,21.83
2022-12-29T11:06:27.390Z,21.85
2022-12-29T11:07:27.856Z,21.85
2022-12-29T11:08:27.417Z,21.89
2022-12-29T11:09:41.516Z,21.89
2022-12-29T11:10:27.415Z,21.89
2022-12-29T11:11:27.329Z,21.92
2022-12-29T11:12:27.293Z,21.96
2022-12-29T11:13:29.942Z,21.99
2022-12-29T11:14:27.307Z,22.01
2022-12-29T11:15:27.316Z,22.03
2022-12-29T11:16:27.292Z,22.08
2022-12-29T11:17:27.231Z,22.14
2022-12-29T11:18:27.264Z,22.15
2022-12-29T11:19:27.279Z,22.18
2022-12-29T11:20:27.242Z,22.18
2022-12-29T11:21:27.252Z,22.19
2022-12-29T11:22:27.762Z,22.19
2022-12-29T11:23:27.161Z,22.21
2022-12-29T11:24:27.308Z,22.21
2022-12-29T11:25:27.179Z,22.21
2022-12-29T11:26:33.619Z,22.22
2022-12-29T11:27:27.196Z,22.23
2022-12-29T11:28:27.116Z,22.28
2022-12-29T11:29:27.131Z,22.31
2022-12-29T11:30:27.548Z,22.31
2022-12-29T11:31:27.118Z,22.31
2022-12-29T11:32:29.122Z,22.31
2022-12-29T11:33:27.066Z,22.31
2022-12-29T11:34:27.040Z,22.31
2022-12-29T11:35:27.015Z,22.33
2022-12-29T11:36:27.021Z,22.34
2022-12-29T11:37:27.544Z,22.34
2022-12-29T11:38:27.105Z,22.37
2022-12-29T11:39:26.992Z,22.36
2022-12-29T11:40:26.953Z,22.38
2022-12-29T11:41:27.060Z,22.40
2022-12-29T11:42:26.967Z,22.43
2022-12-29T11:43:26.965Z,22.43
2022-12-29T11:44:26.979Z,22.44
2022-12-29T11:45:26.932Z,22.47
2022-12-29T11:46:26.936Z,22.47
2022-12-29T11:47:26.961Z,22.51
2022-12-29T11:48:26.917Z,22.51
2022-12-29T11:49:26.876Z,22.53
2022-12-29T11:50:26.929Z,22.53
2022-12-29T11:51:26.895Z,22.53
2022-12-29T11:52:26.911Z,22.51
2022-12-29T11:53:26.840Z,22.51
2022-12-29T11:54:26.950Z,22.53
2022-12-29T11:55:26.826Z,22.55
2022-12-29T11:56:26.839Z,22.52
2022-12-29T11:57:26.761Z,22.51
2022-12-29T11:58:26.763Z,22.47
2022-12-29T11:59:26.760Z,22.46
2022-12-29T12:00:26.764Z,22.47
2022-12-29T12:01:26.800Z,22.49
2022-12-29T12:02:26.826Z,22.51
2022-12-29T12:03:26.825Z,22.53
2022-12-29T12:04:26.748Z,22.56
2022-12-29T12:05:26.744Z,22.56
2022-12-29T12:06:26.649Z,22.52
2022-12-29T12:07:26.810Z,22.55
2022-12-29T12:08:26.711Z,22.56
2022-12-29T12:09:26.634Z,22.56
2022-12-29T12:10:26.630Z,22.55
2022-12-29T12:11:26.628Z,22.56
2022-12-29T12:12:26.599Z,22.52
2022-12-29T12:13:26.597Z,22.52
2022-12-29T12:14:26.596Z,22.52
2022-12-29T12:15:26.581Z,22.53
2022-12-29T12:16:26.692Z,22.56
2022-12-29T12:17:26.629Z,22.59
2022-12-29T12:18:26.597Z,22.59
2022-12-29T12:19:26.532Z,22.62
2022-12-29T12:20:26.522Z,22.62
2022-12-29T12:21:26.613Z,22.62
2022-12-29T12:22:26.590Z,22.59
2022-12-29T12:23:26.503Z,22.58
2022-12-29T12:24:26.467Z,22.55
2022-12-29T12:25:26.476Z,22.44
2022-12-29T12:26:26.519Z,22.43
2022-12-29T12:27:26.499Z,22.44
2022-12-29T12:28:27.684Z,22.46
2022-12-29T12:29:26.510Z,22.51
2022-12-29T12:30:26.390Z,22.56
2022-12-29T12:31:26.467Z,22.62
2022-12-29T12:32:26.415Z,22.67
2022-12-29T12:33:26.426Z,22.70
2022-12-29T12:34:26.379Z,22.74
2022-12-29T12:35:26.415Z,22.80
2022-12-29T12:36:26.406Z,22.89
2022-12-29T12:37:26.322Z,22.95
2022-12-29T12:38:26.323Z,23.02
2022-12-29T12:39:26.416Z,23.07
2022-12-29T12:40:26.404Z,23.13
2022-12-29T12:41:26.316Z,23.17
2022-12-29T12:42:26.333Z,23.17
2022-12-29T12:43:26.329Z,23.20
2022-12-29T12:44:26.258Z,23.28
2022-12-29T12:45:26.339Z,23.36
2022-12-29T12:46:26.295Z,23.40
2022-12-29T12:47:26.201Z,23.45
2022-12-29T12:48:26.251Z,23.45
2022-12-29T12:49:26.190Z,23.45
2022-12-29T12:50:26.215Z,23.47
2022-12-29T12:51:26.741Z,23.48
2022-12-29T12:52:26.161Z,23.48
2022-12-29T12:53:26.178Z,23.48
2022-12-29T12:54:26.141Z,23.51